Latest Weather Observations for South Channel Island

IDV60801

Issued at 10:35 pm EST Wednesday 20 August 2014 (issued every 30 minutes, with the page automatically refreshed every 10 minutes)

About weather observations | Map of weather stations | Latest weather observations for VIC | Other Formats
Station Details ID: 086344 Name: SOUTH CHANNEL ISLAND Lat: -38.31 Lon: 144.80 Height: 9.0 m
Data from the previous 72 hours. | See also: Recent months for locations in Victoria
Date/Time
EST
Temp
°C
App
Temp
°C
Dew
Point
Rel
Hum
%
Delta-T
°C
Wind Press
QNH
hPa
Press
MSL
hPa
Rain
since 9 am
mm
Dir
 
Spd
km/h
Gust
km/h
Spd
kts
Gust
kts
20/10:30pm - - - - - SE 11 13 6 7 - - -
20/10:00pm - - - - - SSE 11 13 6 7 - - -
20/09:30pm - - - - - S 13 13 7 7 - - -
20/09:00pm - - - - - SE 9 11 5 6 - - -
20/08:30pm - - - - - SE 9 11 5 6 - - -
20/08:00pm - - - - - SE 9 9 5 5 - - -
20/07:30pm - - - - - SSW 9 13 5 7 - - -
20/07:00pm - - - - - SW 9 9 5 5 - - -
20/06:30pm - - - - - SSW 13 15 7 8 - - -
20/06:00pm - - - - - SSW 13 15 7 8 - - -
20/05:30pm - - - - - S 17 19 9 10 - - -
20/05:00pm - - - - - S 24 26 13 14 - - -
20/04:30pm - - - - - SSW 20 24 11 13 - - -
20/04:00pm - - - - - SSW 15 19 8 10 - - -
20/03:30pm - - - - - SSW 17 19 9 10 - - -
20/03:00pm - - - - - SSW 17 19 9 10 - - -
20/02:30pm - - - - - SSW 15 19 8 10 - - -
20/02:00pm - - - - - SSW 15 19 8 10 - - -
20/01:30pm - - - - - SSW 20 26 11 14 - - -
20/01:00pm - - - - - SSW 22 26 12 14 - - -
20/12:30pm - - - - - S 24 28 13 15 - - -
20/12:00pm - - - - - SSW 9 17 5 9 - - -
20/11:30am - - - - - W 9 13 5 7 - - -
20/11:00am - - - - - W 11 13 6 7 - - -
20/10:30am - - - - - ENE 2 7 1 4 - - -
20/10:00am - - - - - CALM 0 7 0 4 - - -
20/09:30am - - - - - CALM 0 0 0 0 - - -
20/09:00am - - - - - CALM 0 0 0 0 - - -
20/08:30am - - - - - E 9 11 5 6 - - -
20/08:00am - - - - - ESE 4 9 2 5 - - -
20/07:30am - - - - - SSW 19 22 10 12 - - -
20/07:00am - - - - - SW 20 24 11 13 - - -
20/06:30am - - - - - SSE 19 24 10 13 - - -
20/06:00am - - - - - SSW 15 20 8 11 - - -
20/05:30am - - - - - SSE 13 15 7 8 - - -
20/05:00am - - - - - S 13 17 7 9 - - -
20/04:30am - - - - - SSE 15 20 8 11 - - -
20/04:00am - - - - - S 17 22 9 12 - - -
20/03:30am - - - - - SSE 13 17 7 9 - - -
20/03:00am - - - - - S 20 32 11 17 - - -
20/02:30am - - - - - SSE 17 20 9 11 - - -
20/02:00am - - - - - S 17 24 9 13 - - -
20/01:30am - - - - - ESE 9 11 5 6 - - -
20/01:00am - - - - - SSW 7 11 4 6 - - -
20/12:30am - - - - - SSE 9 13 5 7 - - -
20/12:00am - - - - - SSE 9 11 5 6 - - -
 
Date/Time
EST
Temp
°C
App
Temp
°C
Dew
Point
Rel
Hum
%
Delta-T
°C
Wind Press
QNH
hPa
Press
MSL
hPa
Rain
since 9 am
mm
Dir
 
Spd
km/h
Gust
km/h
Spd
kts
Gust
kts
19/11:30pm - - - - - SE 9 11 5 6 - - -
19/11:00pm - - - - - SSE 15 19 8 10 - - -
19/10:30pm - - - - - S 22 30 12 16 - - -
19/10:00pm - - - - - S 32 33 17 18 - - -
19/09:30pm - - - - - S 11 13 6 7 - - -
19/09:00pm - - - - - SSE 13 17 7 9 - - -
19/08:30pm - - - - - SSE 13 17 7 9 - - -
19/08:00pm - - - - - S 15 17 8 9 - - -
19/07:30pm - - - - - S 26 28 14 15 - - -
19/07:00pm - - - - - SSE 17 19 9 10 - - -
19/06:30pm - - - - - SSE 15 19 8 10 - - -
19/06:00pm - - - - - SSE 17 19 9 10 - - -
19/05:30pm - - - - - SE 17 20 9 11 - - -
19/05:00pm - - - - - SSE 24 28 13 15 - - -
19/04:30pm - - - - - S 26 30 14 16 - - -
19/04:00pm - - - - - SSE 22 26 12 14 - - -
19/03:30pm - - - - - SSE 26 32 14 17 - - -
19/03:00pm - - - - - S 32 37 17 20 - - -
19/02:30pm - - - - - S 26 32 14 17 - - -
19/02:00pm - - - - - S 26 30 14 16 - - -
19/01:30pm - - - - - S 26 30 14 16 - - -
19/01:00pm - - - - - S 26 30 14 16 - - -
19/12:30pm - - - - - S 28 32 15 17 - - -
19/12:00pm - - - - - S 28 32 15 17 - - -
19/11:30am - - - - - S 28 32 15 17 - - -
19/11:00am - - - - - S 28 32 15 17 - - -
19/10:30am - - - - - S 28 32 15 17 - - -
19/10:00am - - - - - S 28 32 15 17 - - -
19/09:30am - - - - - S 30 33 16 18 - - -
19/09:00am - - - - - SSE 24 28 13 15 - - -
19/08:30am - - - - - SSE 20 24 11 13 - - -
19/08:00am - - - - - SSE 20 24 11 13 - - -
19/07:30am - - - - - SE 17 19 9 10 - - -
19/07:00am - - - - - SSE 19 26 10 14 - - -
19/06:30am - - - - - SSE 19 22 10 12 - - -
19/06:00am - - - - - SSE 19 22 10 12 - - -
19/05:30am - - - - - SSE 20 26 11 14 - - -
19/05:00am - - - - - SSE 20 26 11 14 - - -
19/04:30am - - - - - SSE 24 28 13 15 - - -
19/04:00am - - - - - SSE 26 30 14 16 - - -
19/03:30am - - - - - SSE 24 28 13 15 - - -
19/03:00am - - - - - SSE 19 22 10 12 - - -
19/02:30am - - - - - S 22 26 12 14 - - -
19/02:00am - - - - - S 19 24 10 13 - - -
19/01:30am - - - - - S 22 26 12 14 - - -
19/01:00am - - - - - S 28 33 15 18 - - -
19/12:30am - - - - - S 24 28 13 15 - - -
19/12:00am - - - - - S 26 30 14 16 - - -
 
Date/Time
EST
Temp
°C
App
Temp
°C
Dew
Point
Rel
Hum
%
Delta-T
°C
Wind Press
QNH
hPa
Press
MSL
hPa
Rain
since 9 am
mm
Dir
 
Spd
km/h
Gust
km/h
Spd
kts
Gust
kts
18/11:30pm - - - - - S 26 30 14 16 - - -
18/11:00pm - - - - - S 15 19 8 10 - - -
18/10:30pm - - - - - S 19 22 10 12 - - -
18/10:00pm - - - - - SSE 28 32 15 17 - - -
18/09:30pm - - - - - SSE 26 30 14 16 - - -
18/09:00pm - - - - - SSE 26 32 14 17 - - -
18/08:30pm - - - - - SSE 22 26 12 14 - - -
18/08:00pm - - - - - SSE 24 28 13 15 - - -
18/07:30pm - - - - - SSE 26 30 14 16 - - -
18/07:00pm - - - - - ESE 28 32 15 17 - - -
18/06:30pm - - - - - SE 28 33 15 18 - - -
18/06:00pm - - - - - SSE 28 32 15 17 - - -
18/05:30pm - - - - - SSE 30 37 16 20 - - -
18/05:00pm - - - - - SE 28 32 15 17 - - -
18/04:30pm - - - - - SSE 35 41 19 22 - - -
18/04:00pm - - - - - SSE 30 35 16 19 - - -
18/03:30pm - - - - - SSE 33 39 18 21 - - -
18/03:00pm - - - - - SSE 30 35 16 19 - - -
18/02:30pm - - - - - SSE 33 41 18 22 - - -
18/02:00pm - - - - - SE 32 39 17 21 - - -
18/01:30pm - - - - - SSE 33 37 18 20 - - -
18/01:00pm - - - - - SE 35 41 19 22 - - -
18/12:30pm - - - - - SE 33 37 18 20 - - -
18/12:00pm - - - - - SE 32 37 17 20 - - -
18/11:30am - - - - - SE 33 41 18 22 - - -
18/11:00am - - - - - SE 35 39 19 21 - - -
18/10:30am - - - - - SE 33 37 18 20 - - -
18/10:00am - - - - - S 22 28 12 15 - - -
18/09:30am - - - - - S 33 39 18 21 - - -
18/09:00am - - - - - S 37 41 20 22 - - -
18/08:30am - - - - - S 41 50 22 27 - - -
18/08:00am - - - - - S 35 43 19 23 - - -
18/07:30am - - - - - S 37 43 20 23 - - -
18/07:00am - - - - - S 37 48 20 26 - - -
18/06:30am - - - - - S 43 52 23 28 - - -
18/06:00am - - - - - S 39 46 21 25 - - -
18/05:30am - - - - - S 39 44 21 24 - - -
18/05:00am - - - - - S 32 41 17 22 - - -
18/04:30am - - - - - S 32 37 17 20 - - -
18/04:00am - - - - - S 30 35 16 19 - - -
18/03:30am - - - - - S 32 35 17 19 - - -
18/03:00am - - - - - S 33 39 18 21 - - -
18/02:30am - - - - - S 32 35 17 19 - - -
18/02:00am - - - - - S 30 33 16 18 - - -
18/01:30am - - - - - S 30 33 16 18 - - -
18/01:00am - - - - - SSE 28 33 15 18 - - -
18/12:30am - - - - - S 26 32 14 17 - - -
18/12:00am - - - - - S 26 28 14 15 - - -
 
Date/Time
EST
Temp
°C
App
Temp
°C
Dew
Point
Rel
Hum
%
Delta-T
°C
Wind Press
QNH
hPa
Press
MSL
hPa
Rain
since 9 am
mm
Dir
 
Spd
km/h
Gust
km/h
Spd
kts
Gust
kts
17/11:30pm - - - - - S 24 28 13 15 - - -
17/11:00pm - - - - - SSE 22 26 12 14 - - -

Other Formats:

Comma delimited format used in spreadsheet applications
http://www.bom.gov.au/fwo/IDV60801/IDV60801.94853.axf

JavaScript Object Notation format (JSON) in row-major order
http://www.bom.gov.au/fwo/IDV60801/IDV60801.94853.json